createdAt,value
2019-05-09T00:00:20.485Z,1.9
2019-05-09T00:01:11.085Z,1.9
2019-05-09T00:02:03.109Z,1.9
2019-05-09T00:02:51.227Z,1.9
2019-05-09T00:03:41.265Z,1.8
2019-05-09T00:04:33.274Z,1.9
2019-05-09T00:05:26.214Z,1.8
2019-05-09T00:06:13.868Z,1.8
2019-05-09T00:07:03.535Z,1.8
2019-05-09T00:07:53.697Z,1.8
2019-05-09T00:08:43.841Z,1.8
2019-05-09T00:09:34.026Z,1.8
2019-05-09T00:10:41.836Z,1.8
2019-05-09T00:12:04.168Z,1.8
2019-05-09T00:12:51.399Z,1.8
2019-05-09T00:13:44.417Z,1.8
2019-05-09T00:14:33.955Z,1.8
2019-05-09T00:15:24.132Z,1.8
2019-05-09T00:16:14.095Z,1.8
2019-05-09T00:17:04.605Z,1.8
2019-05-09T00:17:54.492Z,1.8
2019-05-09T00:18:44.973Z,1.8
2019-05-09T00:19:34.551Z,1.8
2019-05-09T00:20:24.822Z,1.8
2019-05-09T00:21:14.608Z,1.8
2019-05-09T00:22:04.586Z,1.8
2019-05-09T00:22:54.867Z,1.8
2019-05-09T00:23:45.191Z,1.8
2019-05-09T00:24:34.790Z,1.8
2019-05-09T00:25:25.046Z,1.8
2019-05-09T00:26:14.955Z,1.7
2019-05-09T00:27:04.665Z,1.7
2019-05-09T00:27:55.130Z,1.8
2019-05-09T00:28:45.546Z,1.7
2019-05-09T00:29:34.423Z,1.7
2019-05-09T00:30:24.113Z,1.7
2019-05-09T00:31:15.158Z,1.7
2019-05-09T00:32:05.068Z,1.7
2019-05-09T00:32:54.918Z,1.7
2019-05-09T00:33:49.060Z,1.7
2019-05-09T00:34:35.324Z,1.7
2019-05-09T00:35:24.622Z,1.7
2019-05-09T00:36:15.282Z,1.7
2019-05-09T00:37:04.356Z,1.7
2019-05-09T00:37:54.853Z,1.7
2019-05-09T00:38:44.984Z,1.7
2019-05-09T00:39:35.626Z,1.7
2019-05-09T00:40:25.367Z,1.7
2019-05-09T00:41:15.569Z,1.6
2019-05-09T00:42:05.909Z,1.6
2019-05-09T00:42:54.821Z,1.6
2019-05-09T00:43:44.853Z,1.6
2019-05-09T00:44:34.830Z,1.6
2019-05-09T00:45:25.378Z,1.6
2019-05-09T00:46:15.382Z,1.6
2019-05-09T00:47:05.465Z,1.6
2019-05-09T00:47:55.430Z,1.6
2019-05-09T00:48:45.400Z,1.6
2019-05-09T00:49:35.397Z,1.6
2019-05-09T00:50:24.806Z,1.6
2019-05-09T00:51:15.579Z,1.6
2019-05-09T00:52:04.885Z,1.5
2019-05-09T00:52:55.314Z,1.5
2019-05-09T00:53:45.929Z,1.5
2019-05-09T00:54:35.362Z,1.6
2019-05-09T00:55:25.463Z,1.5
2019-05-09T00:56:15.084Z,1.5
2019-05-09T00:57:05.154Z,1.5
2019-05-09T00:57:54.952Z,1.4
2019-05-09T00:58:45.644Z,1.5
2019-05-09T00:59:35.329Z,1.4
2019-05-09T01:00:25.837Z,1.4
2019-05-09T01:01:15.458Z,1.4
2019-05-09T01:02:05.445Z,1.4
2019-05-09T01:02:55.827Z,1.4
2019-05-09T01:03:45.635Z,1.4
2019-05-09T01:04:35.437Z,1.4
2019-05-09T01:05:25.748Z,1.4
2019-05-09T01:06:15.551Z,1.4
2019-05-09T01:07:05.873Z,1.4
2019-05-09T01:07:55.396Z,1.4
2019-05-09T01:08:46.001Z,1.4
2019-05-09T01:09:35.768Z,1.4
2019-05-09T01:10:26.120Z,1.4
2019-05-09T01:11:17.144Z,1.3
2019-05-09T01:12:06.242Z,1.3
2019-05-09T01:12:56.020Z,1.3
2019-05-09T01:13:46.083Z,1.3
2019-05-09T01:14:36.440Z,1.3
2019-05-09T01:15:26.190Z,1.3
2019-05-09T01:16:16.255Z,1.3
2019-05-09T01:17:06.615Z,1.3
2019-05-09T01:17:56.720Z,1.3
2019-05-09T01:18:46.500Z,1.3
2019-05-09T01:19:36.780Z,1.3
2019-05-09T01:20:26.566Z,1.3
2019-05-09T01:21:16.360Z,1.2
2019-05-09T01:22:06.970Z,1.2
2019-05-09T01:22:56.752Z,1.2
2019-05-09T01:23:46.805Z,1.2
2019-05-09T01:24:37.148Z,1.2
2019-05-09T01:25:26.933Z,1.2
2019-05-09T01:26:16.992Z,1.2
2019-05-09T01:27:07.317Z,1.1
2019-05-09T01:27:57.127Z,1.1
2019-05-09T01:28:47.177Z,1.1
2019-05-09T01:29:37.227Z,1.1
2019-05-09T01:30:27.017Z,1.1
2019-05-09T01:31:17.633Z,1.1
2019-05-09T01:32:07.694Z,1.1
2019-05-09T01:32:57.759Z,1.1
2019-05-09T01:33:47.849Z,1.1
2019-05-09T01:34:37.874Z,1.1
2019-05-09T01:35:27.665Z,1.1
2019-05-09T01:36:17.714Z,1.1
2019-05-09T01:37:08.069Z,1.1
2019-05-09T01:37:57.830Z,1.1
2019-05-09T01:38:48.179Z,1.1
2019-05-09T01:39:37.970Z,1.1
2019-05-09T01:40:28.289Z,1.1
2019-05-09T01:41:35.195Z,1.1
2019-05-09T01:42:58.471Z,1.1
2019-05-09T01:43:48.531Z,1.1
2019-05-09T01:44:38.581Z,1.1
2019-05-09T01:45:28.387Z,1.1
2019-05-09T01:46:18.441Z,1.1
2019-05-09T01:47:08.780Z,1.1
2019-05-09T01:47:58.572Z,1.1
2019-05-09T01:48:48.888Z,1.1
2019-05-09T01:49:38.990Z,1.1
2019-05-09T01:50:29.020Z,1.1
2019-05-09T01:51:18.801Z,1.1
2019-05-09T01:52:08.593Z,1.1
2019-05-09T01:52:58.639Z,1.1
2019-05-09T01:53:49.000Z,1.1
2019-05-09T01:54:39.317Z,1
2019-05-09T01:55:29.361Z,1
2019-05-09T01:56:19.161Z,1.1
2019-05-09T01:57:09.493Z,1.1
2019-05-09T01:57:59.308Z,1.1
2019-05-09T01:58:49.621Z,1
2019-05-09T01:59:39.690Z,1
2019-05-09T02:00:29.733Z,1
2019-05-09T02:01:19.525Z,1
2019-05-09T02:02:10.543Z,1.1
2019-05-09T02:02:59.642Z,1
2019-05-09T02:03:49.721Z,1
2019-05-09T02:04:40.052Z,1
2019-05-09T02:05:29.848Z,1
2019-05-09T02:06:19.612Z,1.1
2019-05-09T02:07:10.215Z,1
2019-05-09T02:08:00.000Z,1
2019-05-09T02:08:50.070Z,1
2019-05-09T02:09:39.855Z,1
2019-05-09T02:10:30.455Z,1
2019-05-09T02:11:20.259Z,1
2019-05-09T02:13:02.928Z,1.1
2019-05-09T02:13:49.884Z,1
2019-05-09T02:14:40.770Z,1
2019-05-09T02:15:30.542Z,1.1
2019-05-09T02:16:20.905Z,1
2019-05-09T02:17:10.400Z,1.1
2019-05-09T02:18:06.452Z,1
2019-05-09T02:18:50.795Z,1
2019-05-09T02:19:41.117Z,1
2019-05-09T02:20:32.721Z,1.1
2019-05-09T02:21:20.975Z,1.1
2019-05-09T02:22:13.530Z,1.1
2019-05-09T02:23:03.401Z,1.1
2019-05-09T02:23:53.490Z,1.1
2019-05-09T02:24:41.497Z,1
2019-05-09T02:25:33.997Z,1
2019-05-09T02:26:23.780Z,1
2019-05-09T02:27:13.729Z,1
2019-05-09T02:28:03.985Z,1.1
2019-05-09T02:28:54.259Z,1
2019-05-09T02:29:43.463Z,1.1
2019-05-09T02:30:35.558Z,1.1
2019-05-09T02:31:25.422Z,1.1
2019-05-09T02:32:14.831Z,1.1
2019-05-09T02:33:04.713Z,1.1
2019-05-09T02:33:55.479Z,1.1
2019-05-09T02:34:44.999Z,1.1
2019-05-09T02:36:01.749Z,1.1
2019-05-09T02:37:12.404Z,1.1
2019-05-09T02:38:01.928Z,1.1
2019-05-09T02:38:52.524Z,1.1
2019-05-09T02:39:42.352Z,1.1
2019-05-09T02:40:32.778Z,1.1
2019-05-09T02:41:22.731Z,1.1
2019-05-09T02:42:19.130Z,1.1
2019-05-09T02:43:52.892Z,1.1
2019-05-09T02:44:42.405Z,1.1
2019-05-09T02:45:32.460Z,1.1
2019-05-09T02:46:23.098Z,1.1
2019-05-09T02:47:13.150Z,1.1
2019-05-09T02:48:03.230Z,1.1
2019-05-09T02:48:53.293Z,1.1
2019-05-09T02:49:43.087Z,1.1
2019-05-09T02:50:33.382Z,1.1
2019-05-09T02:51:23.184Z,1.1
2019-05-09T02:52:13.489Z,1.1
2019-05-09T02:53:03.278Z,1.1
2019-05-09T02:53:53.596Z,1.1
2019-05-09T02:54:43.684Z,1.1
2019-05-09T02:55:33.463Z,1.1
2019-05-09T02:56:23.526Z,1.1
2019-05-09T02:57:13.595Z,1.1
2019-05-09T02:58:03.894Z,1.1
2019-05-09T02:58:53.747Z,1.1
2019-05-09T02:59:43.783Z,1.1
2019-05-09T03:00:34.084Z,1.1
2019-05-09T03:01:23.883Z,1.1
2019-05-09T03:02:14.217Z,1.1
2019-05-09T03:03:04.277Z,1.1
2019-05-09T03:06:34.992Z,1.1
2019-05-09T03:07:24.526Z,1.1
2019-05-09T03:08:14.840Z,1.1
2019-05-09T03:09:05.200Z,1.2
2019-05-09T03:09:57.466Z,1.1
2019-05-09T03:10:48.678Z,1.1
2019-05-09T03:11:35.358Z,1.2
2019-05-09T03:12:40.508Z,1.2
2019-05-09T03:14:08.686Z,1.2
2019-05-09T03:14:58.432Z,1.2
2019-05-09T03:15:45.426Z,1.2
2019-05-09T03:16:35.719Z,1.2
2019-05-09T03:17:28.530Z,1.2
2019-05-09T03:18:18.806Z,1.2
2019-05-09T03:19:09.559Z,1.2
2019-05-09T03:19:55.420Z,1.2
2019-05-09T03:20:48.816Z,1.2
2019-05-09T03:21:39.860Z,1.2
2019-05-09T03:22:28.238Z,1.2
2019-05-09T03:23:19.602Z,1.2
2019-05-09T03:24:09.303Z,1.2
2019-05-09T03:24:59.546Z,1.2
2019-05-09T03:25:49.666Z,1.3
2019-05-09T03:26:39.316Z,1.2
2019-05-09T03:27:29.663Z,1.2
2019-05-09T03:28:19.911Z,1.3
2019-05-09T03:29:09.566Z,1.3
2019-05-09T03:29:59.645Z,1.3
2019-05-09T03:30:50.716Z,1.3
2019-05-09T03:31:40.900Z,1.3
2019-05-09T03:32:30.615Z,1.3
2019-05-09T03:33:20.553Z,1.3
2019-05-09T03:34:10.588Z,1.3
2019-05-09T03:34:59.203Z,1.3
2019-05-09T03:35:49.138Z,1.3
2019-05-09T03:36:38.744Z,1.3
2019-05-09T03:37:29.290Z,1.3
2019-05-09T03:38:19.402Z,1.3
2019-05-09T03:39:09.615Z,1.3
2019-05-09T03:39:59.218Z,1.3
2019-05-09T03:40:48.956Z,1.4
2019-05-09T03:41:39.695Z,1.4
2019-05-09T03:42:44.827Z,1.4
2019-05-09T03:44:08.278Z,1.4
2019-05-09T03:44:59.622Z,1.4
2019-05-09T03:45:49.595Z,1.4
2019-05-09T03:46:39.630Z,1.4
2019-05-09T03:47:28.855Z,1.4
2019-05-09T03:48:19.223Z,1.4
2019-05-09T03:49:08.870Z,1.4
2019-05-09T03:50:00.127Z,1.5
2019-05-09T03:50:50.210Z,1.5
2019-05-09T03:51:39.169Z,1.5
2019-05-09T03:52:29.459Z,1.5
2019-05-09T03:53:19.968Z,1.5
2019-05-09T03:54:09.595Z,1.5
2019-05-09T03:54:58.597Z,1.5
2019-05-09T03:55:49.029Z,1.6
2019-05-09T03:56:38.769Z,1.6
2019-05-09T03:57:29.859Z,1.6
2019-05-09T03:58:19.949Z,1.6
2019-05-09T03:59:09.581Z,1.6
2019-05-09T03:59:58.549Z,1.6
2019-05-09T04:00:49.212Z,1.6
2019-05-09T04:01:39.718Z,1.6
2019-05-09T04:02:29.661Z,1.7
2019-05-09T04:03:21.556Z,1.7
2019-05-09T04:04:10.294Z,1.7
2019-05-09T04:04:59.281Z,1.7
2019-05-09T04:06:03.995Z,1.8
2019-05-09T04:07:31.396Z,1.8
2019-05-09T04:08:19.671Z,1.8
2019-05-09T04:09:09.496Z,1.8
2019-05-09T04:10:00.035Z,1.8
2019-05-09T04:10:51.640Z,1.9
2019-05-09T04:11:39.509Z,1.9
2019-05-09T04:12:29.623Z,1.9
2019-05-09T04:13:19.801Z,1.9
2019-05-09T04:14:09.373Z,1.9
2019-05-09T04:14:59.983Z,2
2019-05-09T04:15:49.707Z,2
2019-05-09T04:16:39.774Z,2
2019-05-09T04:17:30.093Z,2
2019-05-09T04:18:19.685Z,2.1
2019-05-09T04:19:10.234Z,2.1
2019-05-09T04:19:59.727Z,2.1
2019-05-09T04:20:49.799Z,2.1
2019-05-09T04:21:40.415Z,2.2
2019-05-09T04:22:30.449Z,2.2
2019-05-09T04:23:19.977Z,2.2
2019-05-09T04:24:10.578Z,2.3
2019-05-09T04:25:00.363Z,2.3
2019-05-09T04:25:50.695Z,2.3
2019-05-09T04:26:40.477Z,2.4
2019-05-09T04:27:31.380Z,2.4
2019-05-09T04:28:20.867Z,2.4
2019-05-09T04:29:10.932Z,2.4
2019-05-09T04:30:01.007Z,2.5
2019-05-09T04:30:50.513Z,2.6
2019-05-09T04:31:40.854Z,2.6
2019-05-09T04:32:30.905Z,2.6
2019-05-09T04:33:21.222Z,2.7
2019-05-09T04:34:11.489Z,2.7
2019-05-09T04:35:01.079Z,2.8
2019-05-09T04:35:51.414Z,2.8
2019-05-09T04:36:41.522Z,2.8
2019-05-09T04:37:32.676Z,2.9
2019-05-09T04:38:21.374Z,2.9
2019-05-09T04:39:24.404Z,3
2019-05-09T04:40:04.675Z,3.1
2019-05-09T04:40:51.804Z,3.1
2019-05-09T04:41:41.852Z,3.2
2019-05-09T04:42:44.714Z,3.3
2019-05-09T04:43:40.069Z,3.3
2019-05-09T04:45:10.675Z,3.4
2019-05-09T04:45:54.859Z,3.6
2019-05-09T04:46:41.916Z,3.6
2019-05-09T04:47:44.094Z,3.7
2019-05-09T04:48:25.222Z,3.8
2019-05-09T04:49:12.376Z,3.9
2019-05-09T04:50:02.452Z,4
2019-05-09T04:50:52.486Z,4.1
2019-05-09T04:51:42.301Z,4.3
2019-05-09T04:52:32.341Z,4.3
2019-05-09T04:53:22.667Z,4.4
2019-05-09T04:54:12.733Z,4.6
2019-05-09T04:55:02.541Z,4.7
2019-05-09T04:55:52.856Z,4.8
2019-05-09T04:56:42.095Z,4.9
2019-05-09T04:57:32.988Z,5.1
2019-05-09T04:58:23.066Z,5.2
2019-05-09T04:59:12.538Z,5.3
2019-05-09T05:00:02.906Z,5.4
2019-05-09T05:00:53.219Z,5.6
2019-05-09T05:01:43.280Z,5.7
2019-05-09T05:02:32.782Z,5.8
2019-05-09T05:03:23.401Z,5.9
2019-05-09T05:04:13.181Z,6.1
2019-05-09T05:05:03.515Z,6.2
2019-05-09T05:05:53.585Z,6.3
2019-05-09T05:06:43.100Z,6.5
2019-05-09T05:07:33.426Z,6.7
2019-05-09T05:08:23.508Z,6.8
2019-05-09T05:09:13.820Z,7
2019-05-09T05:10:03.986Z,7.1
2019-05-09T05:10:53.930Z,7.4
2019-05-09T05:11:49.034Z,7.5
2019-05-09T05:12:33.786Z,7.8
2019-05-09T05:13:30.706Z,7.9
2019-05-09T05:14:14.187Z,8.1
2019-05-09T05:15:03.974Z,8.3
2019-05-09T05:15:54.307Z,8.5
2019-05-09T05:16:44.483Z,8.7
2019-05-09T05:17:34.412Z,8.9
2019-05-09T05:18:24.480Z,9.1
2019-05-09T05:19:14.257Z,9.4
2019-05-09T05:20:04.612Z,9.6
2019-05-09T05:20:54.652Z,9.8
2019-05-09T05:21:44.737Z,10.1
2019-05-09T05:22:34.772Z,10.3
2019-05-09T05:23:24.569Z,10.6
2019-05-09T05:24:14.889Z,10.8
2019-05-09T05:25:04.699Z,11
2019-05-09T05:25:54.744Z,11.2
2019-05-09T05:26:45.094Z,11.4
2019-05-09T05:27:34.862Z,11.6
2019-05-09T05:28:25.192Z,11.9
2019-05-09T05:29:17.133Z,12.1
2019-05-09T05:30:07.244Z,12.3
2019-05-09T05:30:55.367Z,12.6
2019-05-09T05:31:47.526Z,12.9
2019-05-09T05:32:35.233Z,13.2
2019-05-09T05:33:27.566Z,13.4
2019-05-09T05:34:15.352Z,13.8
2019-05-09T05:35:07.485Z,14
2019-05-09T05:35:57.878Z,14.3
2019-05-09T05:36:47.435Z,14.6
2019-05-09T05:37:38.337Z,14.9
2019-05-09T05:38:28.490Z,15.3
2019-05-09T05:39:18.289Z,15.6
2019-05-09T05:40:08.434Z,15.9
2019-05-09T05:40:58.825Z,16.2
2019-05-09T05:41:48.168Z,16.6
2019-05-09T05:42:39.205Z,16.9
2019-05-09T05:43:47.964Z,17.3
2019-05-09T05:45:08.467Z,18
2019-05-09T05:45:55.642Z,18.4
2019-05-09T05:47:38.877Z,19.1
2019-05-09T05:48:28.900Z,19.6
2019-05-09T05:49:19.047Z,19.9
2019-05-09T05:50:09.338Z,20.4
2019-05-09T05:50:59.242Z,20.8
2019-05-09T05:51:49.094Z,21.3
2019-05-09T05:52:38.794Z,21.6
2019-05-09T05:53:29.211Z,22.1
2019-05-09T05:54:19.609Z,22.5
2019-05-09T05:55:09.106Z,22.9
2019-05-09T05:55:59.167Z,23.4
2019-05-09T05:56:48.676Z,23.8
2019-05-09T05:57:40.034Z,24.2
2019-05-09T05:58:29.729Z,24.6
2019-05-09T05:59:19.354Z,25
2019-05-09T06:00:09.414Z,25.4
2019-05-09T06:00:59.804Z,25.8
2019-05-09T06:01:49.101Z,26.1
2019-05-09T06:02:39.916Z,26.5
2019-05-09T06:04:49.428Z,27.2
2019-05-09T06:08:50.213Z,28.9
2019-05-09T06:09:40.547Z,29.3
2019-05-09T06:10:31.306Z,27.3
2019-05-09T06:11:20.201Z,13.6
2019-05-09T06:12:09.978Z,26.9
2019-05-09T06:13:00.521Z,46.9
2019-05-09T06:14:12.379Z,47.5
2019-05-09T06:15:30.744Z,44.4
2019-05-09T06:16:37.879Z,42.1
2019-05-09T06:18:00.976Z,40.9
2019-05-09T06:18:50.995Z,40.4
2019-05-09T06:19:40.825Z,40
2019-05-09T06:20:31.127Z,39.7
2019-05-09T06:21:21.195Z,39.4
2019-05-09T06:22:11.247Z,39.2
2019-05-09T06:23:01.302Z,39
2019-05-09T06:23:51.404Z,38.8
2019-05-09T06:24:41.397Z,38.6
2019-05-09T06:25:32.143Z,38.4
2019-05-09T06:26:21.286Z,38.3
2019-05-09T06:27:12.134Z,38.2
2019-05-09T06:28:01.114Z,38.1
2019-05-09T06:28:51.754Z,37.9
2019-05-09T06:29:41.767Z,37.8
2019-05-09T06:30:32.321Z,37.7
2019-05-09T06:31:21.885Z,37.6
2019-05-09T06:32:11.394Z,37.4
2019-05-09T06:33:09.231Z,37.4
2019-05-09T06:33:54.778Z,37.3
2019-05-09T06:34:43.376Z,37.2
2019-05-09T06:35:31.909Z,37.1
2019-05-09T06:36:22.381Z,36.9
2019-05-09T06:37:11.840Z,36.9
2019-05-09T06:38:02.371Z,36.8
2019-05-09T06:38:52.643Z,36.8
2019-05-09T06:39:41.671Z,36.6
2019-05-09T06:40:32.323Z,36.6
2019-05-09T06:41:22.616Z,36.5
2019-05-09T06:42:12.682Z,36.4
2019-05-09T06:43:02.754Z,36.4
2019-05-09T06:43:52.859Z,36.4
2019-05-09T06:45:32.915Z,36.3
2019-05-09T06:46:23.013Z,36.3
2019-05-09T06:47:13.028Z,36.3
2019-05-09T06:48:03.106Z,36.3
2019-05-09T06:48:53.269Z,36.3
2019-05-09T06:49:43.208Z,36.3
2019-05-09T06:50:33.288Z,36.3
2019-05-09T06:51:23.323Z,36.3
2019-05-09T06:52:13.399Z,36.4
2019-05-09T06:53:03.458Z,36.4
2019-05-09T06:53:53.236Z,36.4
2019-05-09T06:54:43.298Z,36.4
2019-05-09T06:55:33.369Z,36.4
2019-05-09T06:56:23.425Z,36.5
2019-05-09T06:57:13.758Z,36.5
2019-05-09T06:58:03.826Z,36.6
2019-05-09T06:58:53.593Z,36.6
2019-05-09T06:59:43.960Z,36.7
2019-05-09T07:00:33.735Z,36.7
2019-05-09T07:01:23.513Z,36.8
2019-05-09T07:02:13.845Z,36.8
2019-05-09T07:04:34.512Z,36.9
2019-05-09T07:05:24.580Z,37.1
2019-05-09T07:07:07.664Z,37.3
2019-05-09T07:07:55.040Z,37.3
2019-05-09T07:08:47.495Z,37.4
2019-05-09T07:09:35.113Z,37.6
2019-05-09T07:10:24.927Z,37.6
2019-05-09T07:11:15.423Z,37.8
2019-05-09T07:12:07.642Z,37.8
2019-05-09T07:12:55.387Z,37.9
2019-05-09T07:13:47.067Z,38
2019-05-09T07:14:42.782Z,38.1
2019-05-09T07:15:25.294Z,34.8
2019-05-09T07:16:15.370Z,33.4
2019-05-09T07:17:08.703Z,44.6
2019-05-09T07:17:58.004Z,50.1
2019-05-09T07:18:45.534Z,49.9
2019-05-09T10:05:34.679Z,52.6
2019-05-09T10:06:24.740Z,52.6
2019-05-09T10:08:54.912Z,52.3
2019-05-09T10:10:35.120Z,52.2
2019-05-09T10:11:24.812Z,52.1
2019-05-09T10:12:15.222Z,52.1
2019-05-09T10:14:45.337Z,51.9
2019-05-09T10:16:33.637Z,51.8
2019-05-09T10:17:21.334Z,51.8
2019-05-09T10:18:58.288Z,51.7
2019-05-09T10:19:59.833Z,51.6
2019-05-09T10:21:28.159Z,51.6
2019-05-09T10:22:25.647Z,51.6
2019-05-09T10:23:22.394Z,51.6
2019-05-09T10:24:48.407Z,51.6
2019-05-09T10:26:28.823Z,51.6
2019-05-09T10:28:55.825Z,51.6
2019-05-09T10:29:49.019Z,51.6
2019-05-09T10:30:39.138Z,51.5
2019-05-09T10:33:09.542Z,51.5
2019-05-09T10:33:58.932Z,51.5
2019-05-09T10:34:49.751Z,51.5
2019-05-09T10:35:39.616Z,51.5
2019-05-09T10:38:59.572Z,51.5
2019-05-09T10:39:49.987Z,51.5
2019-05-09T10:40:41.599Z,51.5
2019-05-09T10:41:27.335Z,51.5
2019-05-09T10:42:19.562Z,51.5
2019-05-09T10:43:09.695Z,51.5
2019-05-09T10:43:59.403Z,51.6
2019-05-09T10:44:49.323Z,51.6
2019-05-09T10:45:42.135Z,51.6
2019-05-09T10:47:02.519Z,51.6
2019-05-09T10:48:31.699Z,51.7
2019-05-09T10:49:21.747Z,51.8
2019-05-09T10:50:10.981Z,51.8
2019-05-09T10:51:11.273Z,51.8
2019-05-09T10:52:41.710Z,51.7
2019-05-09T10:53:31.768Z,51.6
2019-05-09T10:54:22.108Z,51.6
2019-05-09T10:55:12.205Z,51.5
2019-05-09T10:56:01.940Z,51.5
2019-05-09T10:56:52.292Z,51.4
2019-05-09T10:57:44.660Z,51.4
2019-05-09T11:00:12.526Z,51.3
2019-05-09T11:01:02.367Z,51.3
2019-05-09T12:05:34.612Z,39.6
2019-05-09T12:06:24.629Z,39.1
2019-05-09T12:07:14.708Z,38.8
2019-05-09T12:08:05.064Z,38.4
2019-05-09T12:08:54.544Z,38
2019-05-09T12:09:44.622Z,37.7
2019-05-09T12:10:34.933Z,37.3
2019-05-09T12:11:25.110Z,36.9
2019-05-09T12:12:14.796Z,36.6
2019-05-09T12:13:05.102Z,36.4
2019-05-09T12:13:54.738Z,36.1
2019-05-09T12:14:45.249Z,35.8
2019-05-09T12:15:35.367Z,35.5
2019-05-09T12:16:25.072Z,35.2
2019-05-09T12:17:15.179Z,35
2019-05-09T12:18:12.482Z,34.7
2019-05-09T12:18:55.241Z,34.4
2019-05-09T12:19:45.040Z,34.3
2019-05-09T12:20:37.359Z,34.1
2019-05-09T12:21:27.959Z,33.8
2019-05-09T12:22:18.859Z,33.6
2019-05-09T12:23:08.320Z,33.4
2019-05-09T12:23:57.892Z,33.3
2019-05-09T12:24:48.559Z,33.1
2019-05-09T12:25:38.361Z,32.8
2019-05-09T12:26:25.785Z,32.7
2019-05-09T12:27:15.624Z,32.5
2019-05-09T12:28:08.579Z,32.3
2019-05-09T12:28:58.813Z,32.1
2019-05-09T12:29:48.843Z,31.9
2019-05-09T12:30:38.948Z,31.7
2019-05-09T12:31:29.181Z,31.5
2019-05-09T12:32:19.199Z,31.3
2019-05-09T12:33:09.022Z,31.2
2019-05-09T12:33:59.776Z,31
2019-05-09T12:34:48.934Z,30.8
2019-05-09T12:35:39.657Z,30.6
2019-05-09T12:36:30.071Z,30.5
2019-05-09T12:37:19.230Z,30.4
2019-05-09T12:38:09.355Z,30.2
2019-05-09T12:39:00.062Z,30.1
2019-05-09T12:39:49.450Z,29.9
2019-05-09T12:40:39.525Z,29.9
2019-05-09T12:41:33.013Z,29.8
2019-05-09T12:42:20.122Z,29.6
2019-05-09T12:43:10.038Z,29.5
2019-05-09T12:43:59.120Z,29.4
2019-05-09T12:44:50.300Z,29.3
2019-05-09T12:45:39.839Z,29.2
2019-05-09T12:46:29.829Z,29.1
2019-05-09T12:47:20.497Z,29
2019-05-09T12:48:20.019Z,28.9
2019-05-09T12:49:50.209Z,28.8
2019-05-09T12:50:40.246Z,28.8
2019-05-09T12:51:29.757Z,28.7
2019-05-09T12:52:20.109Z,28.6
2019-05-09T12:53:08.008Z,28.6
2019-05-09T12:53:59.243Z,28.5
2019-05-09T12:54:49.915Z,28.5
2019-05-09T12:55:39.981Z,28.5
2019-05-09T12:56:29.957Z,28.4
2019-05-09T12:57:21.122Z,28.4
2019-05-09T12:58:10.979Z,28.4
2019-05-09T12:58:59.443Z,28.4
2019-05-09T12:59:54.157Z,28.4
2019-05-09T13:00:39.943Z,28.4
2019-05-09T13:01:28.632Z,28.4
2019-05-09T13:02:19.386Z,28.4
2019-05-09T13:03:09.928Z,28.4
2019-05-09T13:03:59.878Z,28.4
2019-05-09T13:04:49.223Z,28.4
2019-05-09T13:05:40.499Z,28.4
2019-05-09T13:06:31.206Z,28.4
2019-05-09T13:07:19.276Z,28.4
2019-05-09T13:08:11.958Z,28.5
2019-05-09T13:09:00.233Z,28.5
2019-05-09T13:09:54.349Z,28.6
2019-05-09T13:10:39.391Z,28.6
2019-05-09T13:11:29.395Z,28.6
2019-05-09T13:12:19.686Z,28.6
2019-05-09T13:13:10.444Z,28.6
2019-05-09T13:13:59.530Z,28.7
2019-05-09T13:14:49.893Z,28.8
2019-05-09T13:15:39.725Z,28.8
2019-05-09T13:16:54.313Z,28.9
2019-05-09T13:18:30.276Z,29
2019-05-09T13:19:03.614Z,29.1
2019-05-09T13:19:49.955Z,29.2
2019-05-09T13:20:40.026Z,29.3
2019-05-09T13:21:34.369Z,29.4
2019-05-09T13:22:20.160Z,29.6
2019-05-09T13:23:10.543Z,29.8
2019-05-09T13:24:00.563Z,29.9
2019-05-09T13:24:50.315Z,30
2019-05-09T13:25:40.136Z,30.2
2019-05-09T13:26:30.645Z,30.4
2019-05-09T13:27:20.602Z,30.5
2019-05-09T13:28:10.545Z,30.8
2019-05-09T13:29:00.640Z,30.9
2019-05-09T13:29:50.925Z,31.1
2019-05-09T13:30:40.762Z,31.4
2019-05-09T13:31:34.467Z,31.7
2019-05-09T13:33:12.228Z,32.3
2019-05-09T13:34:00.982Z,32.6
2019-05-09T13:34:50.777Z,32.9
2019-05-09T13:35:42.220Z,33.1
2019-05-09T13:36:31.169Z,33.4
2019-05-09T13:37:21.285Z,33.6
2019-05-09T13:38:11.277Z,33.8
2019-05-09T13:39:10.689Z,34.1
2019-05-09T13:40:41.574Z,34.5
2019-05-09T13:41:31.537Z,34.8
2019-05-09T13:42:21.345Z,34.9
2019-05-09T13:43:11.405Z,35.1
2019-05-09T13:44:14.819Z,35.3
2019-05-09T13:45:41.841Z,35.5
2019-05-09T13:46:31.960Z,35.6
2019-05-09T13:47:21.987Z,35.7
2019-05-09T13:49:11.272Z,35.8
2019-05-09T13:50:19.037Z,36
2019-05-09T13:51:08.631Z,36.1
2019-05-09T13:52:09.869Z,36.1
2019-05-09T13:53:39.648Z,36.1
2019-05-09T13:54:29.969Z,36.1
2019-05-09T13:55:19.116Z,36.1
2019-05-09T13:56:09.994Z,36
2019-05-09T13:57:02.689Z,35.9
2019-05-09T13:57:49.673Z,35.8
2019-05-09T13:58:39.938Z,35.7
2019-05-09T13:59:31.415Z,35.6
2019-05-09T14:00:19.839Z,35.4
2019-05-09T14:01:09.310Z,35.3
2019-05-09T14:02:00.693Z,35.2
2019-05-09T14:02:50.512Z,35
2019-05-09T14:03:40.187Z,34.9
2019-05-09T14:04:30.230Z,34.8
2019-05-09T14:06:34.209Z,34.3
2019-05-09T14:07:24.570Z,34.1
2019-05-09T14:08:14.680Z,34
2019-05-09T14:09:04.412Z,33.8
2019-05-09T14:09:54.723Z,33.6
2019-05-09T14:10:44.782Z,33.5
2019-05-09T14:11:34.854Z,33.4
2019-05-09T14:12:24.907Z,33.2
2019-05-09T14:13:15.425Z,33
2019-05-09T14:14:05.037Z,32.9
2019-05-09T14:14:55.159Z,32.8
2019-05-09T14:15:45.823Z,32.6
2019-05-09T14:16:35.232Z,32.4
2019-05-09T14:17:54.646Z,32.3
2019-05-09T14:19:50.798Z,31.9
2019-05-09T14:20:49.709Z,31.6
2019-05-09T14:21:39.517Z,31.4
2019-05-09T14:22:29.042Z,31.3
2019-05-09T14:23:21.352Z,31.1
2019-05-09T14:24:19.937Z,30.9
2019-05-09T14:26:40.148Z,30.4
2019-05-09T14:27:30.788Z,30.2
2019-05-09T14:28:20.327Z,30.1
2019-05-09T14:29:14.784Z,29.9
2019-05-09T14:30:50.162Z,29.6
2019-05-09T14:31:40.506Z,29.5
2019-05-09T14:32:36.089Z,29.3
2019-05-09T14:34:10.723Z,29.1
2019-05-09T14:35:00.774Z,28.9
2019-05-09T14:35:50.800Z,28.8
2019-05-09T14:36:50.368Z,28.7
2019-05-09T14:37:30.926Z,28.5
2019-05-09T14:38:20.738Z,28.4
2019-05-09T14:39:11.046Z,28.3
2019-05-09T14:40:10.708Z,28.2
2019-05-09T14:40:51.198Z,28
2019-05-09T14:41:41.249Z,27.9
2019-05-09T14:43:21.067Z,27.7
2019-05-09T14:44:11.411Z,27.6
2019-05-09T14:45:01.480Z,27.4
2019-05-09T14:45:51.545Z,27.3
2019-05-09T14:46:41.713Z,27.2
2019-05-09T14:47:31.428Z,27.1
2019-05-09T14:48:21.718Z,26.9
2019-05-09T14:49:11.837Z,26.8
2019-05-09T14:50:01.867Z,26.7
2019-05-09T14:50:51.890Z,26.6
2019-05-09T14:51:41.671Z,26.4
2019-05-09T14:52:32.037Z,26.3
2019-05-09T14:53:22.075Z,26.1
2019-05-09T14:54:11.856Z,26
2019-05-09T14:55:02.257Z,25.9
2019-05-09T14:55:51.992Z,25.8
2019-05-09T14:56:43.910Z,25.6
2019-05-09T14:57:32.384Z,25.4
2019-05-09T14:58:22.452Z,25.3
2019-05-09T14:59:12.502Z,25.2
2019-05-09T15:00:02.307Z,25
2019-05-09T15:00:52.347Z,24.9
2019-05-09T15:01:45.200Z,24.8
2019-05-09T15:02:32.722Z,24.6
2019-05-09T15:03:22.802Z,24.5
2019-05-09T15:04:12.587Z,24.3
2019-05-09T15:05:06.642Z,24.2
2019-05-09T15:05:52.694Z,24.1
2019-05-09T15:06:42.505Z,23.9
2019-05-09T15:07:32.549Z,23.8
2019-05-09T15:08:22.906Z,23.6
2019-05-09T15:09:13.227Z,23.5
2019-05-09T15:10:03.542Z,23.3
2019-05-09T15:10:52.785Z,23.2
2019-05-09T15:11:43.446Z,23.1
2019-05-09T15:12:33.187Z,22.9
2019-05-09T15:13:23.517Z,22.8
2019-05-09T15:14:13.304Z,22.6
2019-05-09T15:15:03.809Z,22.5
2019-05-09T15:15:53.442Z,22.4
2019-05-09T15:16:43.766Z,22.3
2019-05-09T15:17:33.554Z,22.1
2019-05-09T15:18:23.624Z,21.9
2019-05-09T15:19:14.249Z,21.8
2019-05-09T15:20:03.736Z,21.7
2019-05-09T15:20:54.066Z,21.6
2019-05-09T15:21:44.126Z,21.4
2019-05-09T15:22:33.926Z,21.3
2019-05-09T15:24:14.316Z,21
2019-05-09T15:25:04.156Z,20.9
2019-05-09T15:25:54.486Z,20.8
2019-05-09T15:26:43.938Z,20.6
2019-05-09T15:27:34.571Z,20.5
2019-05-09T15:28:24.611Z,20.4
2019-05-09T15:29:14.673Z,20.3
2019-05-09T15:30:04.746Z,20.1
2019-05-09T15:30:54.526Z,20
2019-05-09T15:31:44.714Z,19.9
2019-05-09T15:32:34.905Z,19.8
2019-05-09T15:33:24.738Z,19.7
2019-05-09T15:34:15.161Z,19.6
2019-05-09T15:35:04.850Z,19.4
2019-05-09T15:35:54.625Z,19.4
2019-05-09T15:36:45.229Z,19.2
2019-05-09T15:37:35.018Z,19.1
2019-05-09T15:38:24.537Z,19
2019-05-09T15:39:14.860Z,18.9
2019-05-09T15:40:08.013Z,18.8
2019-05-09T15:40:55.555Z,18.8
2019-05-09T15:41:47.639Z,18.6
2019-05-09T15:42:35.389Z,18.5
2019-05-09T15:43:25.430Z,18.4
2019-05-09T15:44:18.368Z,18.3
2019-05-09T15:45:07.909Z,18.2
2019-05-09T15:45:59.052Z,18.1
2019-05-09T15:46:45.954Z,18.1
2019-05-09T15:47:38.307Z,17.9
2019-05-09T15:48:28.414Z,17.9
2019-05-09T15:49:18.084Z,17.8
2019-05-09T15:50:24.124Z,17.7
2019-05-09T15:51:48.752Z,17.5
2019-05-09T15:52:39.007Z,17.4
2019-05-09T15:53:28.804Z,17.3
2019-05-09T15:54:19.334Z,17.3
2019-05-09T15:55:09.057Z,17.2
2019-05-09T15:55:55.804Z,17.1
2019-05-09T15:57:39.164Z,16.9
2019-05-09T15:58:29.225Z,16.9
2019-05-09T15:59:19.616Z,16.8
2019-05-09T16:00:09.495Z,16.7
2019-05-09T16:00:59.651Z,16.6
2019-05-09T16:01:49.569Z,16.6
2019-05-09T16:02:40.586Z,16.5
2019-05-09T16:03:29.411Z,16.4
2019-05-09T16:04:19.030Z,16.4